createdAt,value
2018-03-25T00:02:18.089Z,4.43
2018-03-25T00:04:45.664Z,4.46
2018-03-25T00:07:13.245Z,4.45
2018-03-25T00:09:40.925Z,4.45
2018-03-25T00:12:08.811Z,4.42
2018-03-25T00:14:36.381Z,4.40
2018-03-25T00:17:04.223Z,4.36
2018-03-25T00:19:31.803Z,4.37
2018-03-25T00:21:59.376Z,4.32
2018-03-25T00:24:27.050Z,4.28
2018-03-25T00:26:54.610Z,4.27
2018-03-25T00:29:22.248Z,4.24
2018-03-25T00:31:49.903Z,4.22
2018-03-25T00:34:18.381Z,4.23
2018-03-25T00:36:45.962Z,4.19
2018-03-25T00:39:13.536Z,4.18
2018-03-25T00:41:41.371Z,4.18
2018-03-25T00:44:08.937Z,4.19
2018-03-25T00:46:36.796Z,4.23
2018-03-25T00:49:04.365Z,4.18
2018-03-25T00:51:31.919Z,4.21
2018-03-25T00:53:59.751Z,4.19
2018-03-25T00:56:27.346Z,4.10
2018-03-25T00:58:54.971Z,4.12
2018-03-25T01:01:22.882Z,4.09
2018-03-25T01:03:50.637Z,4.15
2018-03-25T01:06:18.404Z,4.10
2018-03-25T01:08:46.002Z,4.10
2018-03-25T01:11:13.574Z,4.11
2018-03-25T01:13:41.139Z,4.05
2018-03-25T01:16:11.472Z,4.00
2018-03-25T01:18:39.046Z,4.02
2018-03-25T01:21:06.666Z,3.97
2018-03-25T01:23:34.548Z,3.88
2018-03-25T01:26:02.134Z,3.86
2018-03-25T01:28:29.693Z,3.86
2018-03-25T01:30:57.760Z,3.82
2018-03-25T01:33:26.028Z,3.86
2018-03-25T01:38:28.210Z,3.78
2018-03-25T01:40:55.765Z,3.78
2018-03-25T01:43:23.603Z,3.83
2018-03-25T01:45:51.231Z,3.76
2018-03-25T01:48:18.735Z,3.76
2018-03-25T01:50:46.290Z,3.76
2018-03-25T01:53:14.614Z,3.72
2018-03-25T01:55:42.184Z,3.69
2018-03-25T01:58:09.833Z,3.70
2018-03-25T02:00:40.853Z,3.66
2018-03-25T02:03:08.734Z,3.62
2018-03-25T02:05:37.624Z,3.63
2018-03-25T02:08:05.445Z,3.65
2018-03-25T02:10:33.626Z,3.64
2018-03-25T02:13:02.060Z,3.61
2018-03-25T02:15:29.719Z,3.62
2018-03-25T02:17:57.534Z,3.62
2018-03-25T02:20:25.326Z,3.61
2018-03-25T02:22:52.862Z,3.63
2018-03-25T02:25:20.641Z,3.61
2018-03-25T02:27:49.080Z,3.58
2018-03-25T02:30:18.545Z,3.58
2018-03-25T02:32:46.095Z,3.59
2018-03-25T02:35:13.687Z,3.58
2018-03-25T02:37:41.252Z,3.55
2018-03-25T02:40:09.486Z,3.54
2018-03-25T02:42:37.048Z,3.53
2018-03-25T02:45:04.878Z,3.52
2018-03-25T02:47:32.857Z,3.51
2018-03-25T02:50:00.405Z,3.52
2018-03-25T02:52:28.109Z,3.48
2018-03-25T02:54:55.621Z,3.47
2018-03-25T02:57:23.159Z,3.45
2018-03-25T02:59:52.956Z,3.42
2018-03-25T03:02:21.618Z,3.43
2018-03-25T03:04:49.114Z,3.40
2018-03-25T03:07:18.352Z,3.44
2018-03-25T03:09:45.854Z,3.41
2018-03-25T03:12:13.414Z,3.38
2018-03-25T03:14:40.965Z,3.33
2018-03-25T03:17:08.484Z,3.33
2018-03-25T03:19:36.427Z,3.31
2018-03-25T03:22:03.949Z,3.33
2018-03-25T03:24:32.129Z,3.32
2018-03-25T03:26:59.658Z,3.31
2018-03-25T03:29:27.244Z,3.29
2018-03-25T03:31:54.775Z,3.29
2018-03-25T03:34:25.675Z,3.28
2018-03-25T03:36:53.508Z,3.25
2018-03-25T03:39:21.032Z,3.27
2018-03-25T03:41:48.651Z,3.25
2018-03-25T03:44:16.819Z,3.27
2018-03-25T03:46:44.357Z,3.27
2018-03-25T03:49:11.867Z,3.26
2018-03-25T03:51:39.794Z,3.25
2018-03-25T03:54:08.992Z,3.23
2018-03-25T03:56:36.505Z,3.22
2018-03-25T03:59:05.383Z,3.20
2018-03-25T04:01:32.885Z,3.18
2018-03-25T04:04:00.663Z,3.16
2018-03-25T04:06:28.210Z,3.18
2018-03-25T04:08:55.724Z,3.17
2018-03-25T04:11:23.230Z,3.16
2018-03-25T04:13:51.931Z,3.17
2018-03-25T04:16:19.449Z,3.13
2018-03-25T04:18:46.963Z,3.10
2018-03-25T04:21:14.523Z,3.10
2018-03-25T04:23:42.038Z,3.12
2018-03-25T04:26:09.545Z,3.08
2018-03-25T04:28:37.075Z,3.04
2018-03-25T04:31:04.586Z,2.98
2018-03-25T04:33:32.111Z,3.01
2018-03-25T04:36:00.735Z,3.00
2018-03-25T04:38:28.231Z,3.00
2018-03-25T04:40:55.747Z,2.94
2018-03-25T04:43:24.229Z,2.93
2018-03-25T04:45:51.731Z,2.95
2018-03-25T04:48:19.254Z,2.95
2018-03-25T04:50:46.908Z,2.88
2018-03-25T04:53:14.851Z,2.92
2018-03-25T04:55:44.270Z,2.87
2018-03-25T04:58:11.807Z,2.88
2018-03-25T05:00:39.338Z,2.81
2018-03-25T05:03:06.855Z,2.80
2018-03-25T05:05:34.378Z,2.78
2018-03-25T05:08:01.873Z,2.76
2018-03-25T05:10:29.409Z,2.77
2018-03-25T05:12:57.279Z,2.74
2018-03-25T05:15:24.791Z,2.73
2018-03-25T05:17:52.296Z,2.77
2018-03-25T05:20:20.862Z,2.78
2018-03-25T05:22:48.353Z,2.77
2018-03-25T05:25:15.880Z,2.81
2018-03-25T05:27:43.731Z,2.88
2018-03-25T05:30:11.257Z,2.86
2018-03-25T05:32:38.783Z,2.89
2018-03-25T05:35:07.565Z,2.90
2018-03-25T05:37:35.100Z,2.98
2018-03-25T05:40:02.621Z,2.95
2018-03-25T05:42:30.181Z,2.93
2018-03-25T05:44:58.489Z,2.95
2018-03-25T05:47:26.004Z,2.98
2018-03-25T05:49:54.190Z,3.06
2018-03-25T05:52:21.719Z,3.14
2018-03-25T05:54:49.243Z,3.17
2018-03-25T05:57:16.776Z,3.19
2018-03-25T05:59:44.289Z,3.24
2018-03-25T06:02:11.813Z,3.29
2018-03-25T06:04:39.378Z,3.36
2018-03-25T06:07:06.898Z,3.43
2018-03-25T06:09:34.420Z,3.54
2018-03-25T06:12:01.957Z,3.63
2018-03-25T06:14:29.471Z,3.78
2018-03-25T06:16:57.415Z,3.89
2018-03-25T06:19:24.966Z,4.02
2018-03-25T06:21:52.496Z,4.16
2018-03-25T06:24:20.060Z,4.25
2018-03-25T06:26:47.649Z,4.34
2018-03-25T06:29:15.223Z,4.38
2018-03-25T06:31:42.694Z,4.46
2018-03-25T06:34:10.582Z,4.42
2018-03-25T06:36:39.089Z,4.54
2018-03-25T06:39:06.700Z,4.63
2018-03-25T06:41:34.237Z,4.78
2018-03-25T06:44:01.792Z,4.89
2018-03-25T06:46:29.302Z,5.09
2018-03-25T06:48:56.861Z,5.29
2018-03-25T06:51:24.376Z,5.35
2018-03-25T06:53:51.902Z,5.50
2018-03-25T06:56:19.469Z,5.63
2018-03-25T06:58:46.974Z,5.70
2018-03-25T07:01:14.494Z,5.92
2018-03-25T07:03:42.048Z,6.07
2018-03-25T07:06:10.187Z,6.10
2018-03-25T07:08:37.847Z,6.02
2018-03-25T07:11:06.249Z,6.41
2018-03-25T07:13:36.402Z,6.69
2018-03-25T07:16:04.076Z,7.02
2018-03-25T07:18:31.761Z,7.33
2018-03-25T07:20:59.378Z,7.73
2018-03-25T07:23:26.919Z,7.94
2018-03-25T07:25:54.452Z,8.29
2018-03-25T07:28:22.536Z,8.59
2018-03-25T07:30:51.910Z,8.66
2018-03-25T07:33:19.459Z,8.82
2018-03-25T07:35:46.982Z,8.89
2018-03-25T07:38:15.413Z,8.97
2018-03-25T07:40:45.542Z,9.08
2018-03-25T07:43:13.145Z,9.19
2018-03-25T07:45:40.768Z,9.08
2018-03-25T07:48:08.304Z,8.86
2018-03-25T07:50:35.967Z,9.02
2018-03-25T07:53:03.492Z,9.03
2018-03-25T07:55:31.202Z,9.11
2018-03-25T07:57:59.072Z,9.20
2018-03-25T08:00:26.684Z,9.16
2018-03-25T08:02:54.265Z,9.02
2018-03-25T08:05:21.794Z,8.75
2018-03-25T08:07:49.311Z,8.80
2018-03-25T08:10:16.850Z,8.89
2018-03-25T08:12:46.299Z,9.26
2018-03-25T08:15:13.985Z,9.31
2018-03-25T08:17:41.549Z,8.94
2018-03-25T08:20:09.061Z,7.99
2018-03-25T08:22:36.999Z,8.44
2018-03-25T08:25:05.234Z,8.51
2018-03-25T08:27:35.408Z,9.17
2018-03-25T08:30:09.718Z,9.50
2018-03-25T08:32:39.387Z,9.41
2018-03-25T08:35:08.270Z,9.40
2018-03-25T08:37:36.531Z,8.52
2018-03-25T08:40:04.139Z,8.78
2018-03-25T08:42:31.751Z,9.51
2018-03-25T08:44:59.337Z,10.27
2018-03-25T08:47:26.908Z,10.56
2018-03-25T08:49:56.643Z,10.67
2018-03-25T08:52:24.251Z,10.29
2018-03-25T08:54:51.751Z,10.71
2018-03-25T08:57:19.310Z,11.14
2018-03-25T08:59:48.646Z,11.66
2018-03-25T09:02:16.872Z,12.01
2018-03-25T09:04:44.456Z,12.40
2018-03-25T09:07:12.111Z,11.79
2018-03-25T09:09:39.628Z,11.30
2018-03-25T09:12:07.253Z,11.78
2018-03-25T09:14:37.033Z,12.35
2018-03-25T09:17:04.711Z,12.75
2018-03-25T09:19:32.276Z,12.98
2018-03-25T09:22:00.154Z,13.24
2018-03-25T09:24:27.684Z,13.24
2018-03-25T09:26:55.473Z,13.57
2018-03-25T09:29:23.604Z,13.49
2018-03-25T09:31:51.237Z,13.68
2018-03-25T09:34:23.028Z,13.20
2018-03-25T09:36:50.580Z,13.33
2018-03-25T09:39:18.156Z,13.20
2018-03-25T09:41:46.058Z,13.60
2018-03-25T09:44:13.835Z,13.85
2018-03-25T09:46:46.570Z,13.44
2018-03-25T09:49:14.097Z,12.96
2018-03-25T09:51:43.433Z,13.17
2018-03-25T09:54:11.099Z,13.19
2018-03-25T09:56:38.694Z,13.04
2018-03-25T09:59:06.549Z,12.82
2018-03-25T10:01:35.103Z,12.03
2018-03-25T10:04:02.651Z,12.51
2018-03-25T10:06:30.182Z,11.64
2018-03-25T10:08:57.714Z,12.05
2018-03-25T10:11:25.273Z,11.42
2018-03-25T10:13:52.803Z,11.78
2018-03-25T10:16:20.395Z,12.30
2018-03-25T10:18:47.938Z,12.51
2018-03-25T10:21:15.715Z,12.79
2018-03-25T10:23:43.289Z,12.13
2018-03-25T10:26:10.916Z,11.93
2018-03-25T10:31:15.342Z,13.20
2018-03-25T10:33:42.957Z,13.82
2018-03-25T10:36:10.582Z,14.22
2018-03-25T10:38:38.163Z,14.63
2018-03-25T10:41:05.743Z,15.30
2018-03-25T10:43:33.267Z,16.08
2018-03-25T10:46:00.856Z,15.76
2018-03-25T10:48:28.403Z,16.24
2018-03-25T10:50:56.126Z,14.67
2018-03-25T10:53:23.690Z,16.09
2018-03-25T10:55:51.609Z,16.38
2018-03-25T10:58:19.173Z,17.33
2018-03-25T11:00:46.879Z,17.96
2018-03-25T11:03:14.696Z,18.67
2018-03-25T11:05:42.257Z,16.94
2018-03-25T11:08:09.924Z,17.80
2018-03-25T11:10:37.468Z,16.28
2018-03-25T11:13:05.160Z,16.02
2018-03-25T11:15:32.751Z,17.13
2018-03-25T11:18:00.230Z,18.14
2018-03-25T11:20:27.738Z,17.39
2018-03-25T11:22:55.386Z,16.55
2018-03-25T11:25:22.970Z,16.97
2018-03-25T11:27:50.475Z,16.41
2018-03-25T11:30:18.050Z,16.77
2018-03-25T11:32:45.611Z,16.42
2018-03-25T11:35:13.209Z,17.64
2018-03-25T11:37:41.157Z,16.92
2018-03-25T11:40:08.729Z,17.04
2018-03-25T11:42:36.259Z,18.49
2018-03-25T11:45:03.796Z,19.13
2018-03-25T11:47:31.376Z,20.71
2018-03-25T11:49:58.913Z,21.80
2018-03-25T11:52:27.145Z,23.89
2018-03-25T11:54:55.132Z,25.55
2018-03-25T11:57:22.693Z,25.99
2018-03-25T11:59:50.966Z,26.14
2018-03-25T12:02:18.550Z,23.68
2018-03-25T12:04:46.062Z,23.39
2018-03-25T12:07:13.616Z,21.32
2018-03-25T12:09:41.137Z,19.44
2018-03-25T12:12:08.692Z,21.41
2018-03-25T12:14:36.234Z,22.90
2018-03-25T12:17:03.812Z,24.61
2018-03-25T12:19:31.336Z,26.83
2018-03-25T12:21:59.144Z,27.57
2018-03-25T12:24:26.972Z,28.93
2018-03-25T12:26:54.500Z,28.22
2018-03-25T12:29:22.101Z,26.32
2018-03-25T12:31:49.618Z,27.71
2018-03-25T12:34:17.246Z,28.81
2018-03-25T12:36:44.868Z,29.11
2018-03-25T12:39:12.476Z,26.22
2018-03-25T12:41:40.026Z,26.13
2018-03-25T12:44:07.578Z,27.49
2018-03-25T12:46:35.140Z,27.02
2018-03-25T12:49:02.749Z,26.39
2018-03-25T12:51:30.759Z,26.12
2018-03-25T12:53:58.351Z,26.62
2018-03-25T12:56:26.079Z,26.31
2018-03-25T12:58:53.689Z,24.38
2018-03-25T13:01:21.325Z,21.62
2018-03-25T13:03:48.834Z,21.56
2018-03-25T13:06:16.434Z,22.39
2018-03-25T13:08:44.002Z,22.62
2018-03-25T13:11:11.561Z,22.53
2018-03-25T13:13:39.100Z,21.89
2018-03-25T13:16:06.654Z,20.30
2018-03-25T13:18:34.338Z,18.91
2018-03-25T13:21:01.894Z,18.49
2018-03-25T13:23:29.432Z,17.45
2018-03-25T13:25:57.025Z,17.25
2018-03-25T13:28:24.584Z,16.90
2018-03-25T13:30:52.112Z,16.88
2018-03-25T13:33:19.723Z,17.47
2018-03-25T13:35:47.298Z,18.57
2018-03-25T13:38:14.930Z,18.21
2018-03-25T13:40:43.346Z,18.47
2018-03-25T13:43:10.998Z,17.91
2018-03-25T13:45:38.625Z,17.37
2018-03-25T13:48:06.464Z,16.55
2018-03-25T13:50:34.124Z,16.25
2018-03-25T13:53:01.652Z,15.97
2018-03-25T13:55:29.570Z,17.02
2018-03-25T13:57:57.182Z,18.15
2018-03-25T14:00:24.722Z,18.92
2018-03-25T14:02:52.352Z,19.60
2018-03-25T14:05:20.232Z,20.06
2018-03-25T14:07:47.895Z,19.97
2018-03-25T14:10:15.546Z,18.91
2018-03-25T14:12:43.432Z,18.70
2018-03-25T14:15:11.674Z,19.01
2018-03-25T14:17:39.237Z,19.90
2018-03-25T14:20:06.869Z,20.62
2018-03-25T14:22:34.498Z,21.12
2018-03-25T14:25:03.369Z,21.13
2018-03-25T14:27:31.024Z,21.47
2018-03-25T14:29:58.751Z,21.31
2018-03-25T14:32:26.403Z,21.70
2018-03-25T14:34:53.996Z,22.30
2018-03-25T14:37:21.650Z,22.35
2018-03-25T14:39:49.219Z,20.65
2018-03-25T14:42:16.845Z,20.45
2018-03-25T14:44:44.973Z,20.78
2018-03-25T14:47:12.553Z,20.42
2018-03-25T14:49:40.110Z,20.85
2018-03-25T14:52:07.729Z,21.06
2018-03-25T14:54:35.289Z,20.82
2018-03-25T14:57:02.917Z,18.38
2018-03-25T14:59:31.121Z,18.15
2018-03-25T15:01:58.836Z,18.75
2018-03-25T15:04:26.416Z,17.72
2018-03-25T15:06:54.250Z,17.78
2018-03-25T15:09:21.813Z,18.05
2018-03-25T15:11:49.406Z,17.94
2018-03-25T15:14:17.147Z,17.25
2018-03-25T15:16:44.685Z,17.00
2018-03-25T15:19:12.402Z,16.14
2018-03-25T15:21:40.350Z,15.51
2018-03-25T15:24:08.016Z,15.85
2018-03-25T15:26:35.910Z,15.28
2018-03-25T15:29:03.732Z,14.68
2018-03-25T15:31:31.280Z,15.00
2018-03-25T15:33:58.883Z,15.32
2018-03-25T15:36:26.528Z,15.29
2018-03-25T15:38:54.071Z,15.11
2018-03-25T15:41:21.657Z,14.95
2018-03-25T15:43:49.156Z,14.11
2018-03-25T15:46:16.686Z,14.07
2018-03-25T15:48:44.246Z,13.41
2018-03-25T15:51:11.969Z,13.36
2018-03-25T15:53:39.488Z,13.44
2018-03-25T15:56:07.032Z,13.48
2018-03-25T15:58:34.795Z,13.45
2018-03-25T16:01:02.424Z,13.38
2018-03-25T16:03:29.983Z,13.34
2018-03-25T16:05:57.894Z,13.19
2018-03-25T16:08:28.040Z,13.11
2018-03-25T16:10:55.605Z,13.04
2018-03-25T16:13:23.157Z,12.72
2018-03-25T16:15:50.709Z,12.65
2018-03-25T16:18:18.307Z,12.67
2018-03-25T16:20:45.850Z,12.58
2018-03-25T16:23:13.784Z,12.62
2018-03-25T16:25:42.250Z,12.39
2018-03-25T16:28:09.808Z,12.37
2018-03-25T16:30:37.388Z,12.31
2018-03-25T16:33:05.079Z,12.17
2018-03-25T16:35:32.830Z,11.74
2018-03-25T16:38:00.352Z,11.56
2018-03-25T16:40:28.409Z,11.58
2018-03-25T16:42:56.214Z,11.63
2018-03-25T16:45:24.396Z,11.69
2018-03-25T16:47:52.020Z,11.68
2018-03-25T16:50:19.579Z,11.74
2018-03-25T16:52:47.108Z,11.71
2018-03-25T16:55:14.705Z,11.63
2018-03-25T16:57:42.199Z,11.46
2018-03-25T17:00:09.955Z,11.38
2018-03-25T17:02:37.513Z,11.29
2018-03-25T17:05:05.074Z,11.20
2018-03-25T17:07:32.616Z,11.21
2018-03-25T17:10:00.339Z,11.22
2018-03-25T17:12:27.922Z,11.27
2018-03-25T17:14:55.476Z,11.44
2018-03-25T17:17:23.149Z,11.40
2018-03-25T17:19:51.593Z,11.34
2018-03-25T17:22:19.224Z,11.28
2018-03-25T17:24:46.812Z,11.29
2018-03-25T17:27:14.408Z,11.27
2018-03-25T17:29:42.374Z,11.29
2018-03-25T17:32:09.955Z,11.33
2018-03-25T17:34:38.118Z,11.31
2018-03-25T17:37:05.935Z,11.27
2018-03-25T17:39:33.607Z,11.27
2018-03-25T17:42:01.176Z,11.28
2018-03-25T17:44:28.803Z,11.35
2018-03-25T17:46:56.506Z,11.30
2018-03-25T17:49:24.243Z,11.27
2018-03-25T17:51:51.949Z,11.24
2018-03-25T17:54:20.617Z,11.23
2018-03-25T17:56:48.170Z,11.19
2018-03-25T17:59:15.923Z,11.20
2018-03-25T18:01:44.611Z,11.14
2018-03-25T18:04:12.709Z,11.14
2018-03-25T18:06:40.347Z,11.11
2018-03-25T18:09:07.912Z,11.11
2018-03-25T18:11:35.498Z,11.03
2018-03-25T18:14:03.098Z,11.00
2018-03-25T18:16:30.660Z,10.98
2018-03-25T18:18:58.276Z,10.97
2018-03-25T18:21:25.842Z,10.96
2018-03-25T18:23:53.554Z,10.94
2018-03-25T18:26:21.118Z,10.92
2018-03-25T18:28:49.723Z,10.91
2018-03-25T18:31:17.291Z,10.90
2018-03-25T18:33:45.385Z,10.85
2018-03-25T18:36:12.943Z,10.85
2018-03-25T18:38:40.929Z,10.81
2018-03-25T18:41:11.277Z,10.81
2018-03-25T18:43:41.304Z,10.79
2018-03-25T18:46:09.184Z,10.79
2018-03-25T18:48:36.710Z,10.78
2018-03-25T18:51:04.315Z,10.77
2018-03-25T18:56:07.127Z,10.76
2018-03-25T18:58:45.427Z,10.70
2018-03-25T19:01:15.501Z,10.69
2018-03-25T19:03:44.925Z,10.66
2018-03-25T19:06:17.148Z,10.67
2018-03-25T19:08:46.127Z,10.60
2018-03-25T19:11:20.069Z,10.60
2018-03-25T19:13:47.736Z,10.58
2018-03-25T19:16:15.407Z,10.53
2018-03-25T19:18:43.191Z,10.56
2018-03-25T19:21:10.727Z,10.57
2018-03-25T19:23:43.271Z,10.57
2018-03-25T19:26:10.938Z,10.56
2018-03-25T19:28:38.878Z,10.51
2018-03-25T19:31:06.495Z,10.52
2018-03-25T19:33:34.156Z,10.50
2018-03-25T19:36:05.322Z,10.49
2018-03-25T19:38:34.691Z,10.48
2018-03-25T19:41:02.581Z,10.49
2018-03-25T19:43:30.565Z,10.49
2018-03-25T19:45:58.569Z,10.46
2018-03-25T19:48:26.869Z,10.45
2018-03-25T19:50:54.476Z,10.44
2018-03-25T19:53:23.205Z,10.47
2018-03-25T19:55:50.756Z,10.46
2018-03-25T19:58:18.545Z,10.48
2018-03-25T20:00:46.090Z,10.49
2018-03-25T20:03:16.759Z,10.50
2018-03-25T20:05:44.944Z,10.45
2018-03-25T20:08:13.498Z,10.43
2018-03-25T20:10:41.121Z,10.40
2018-03-25T20:13:09.430Z,10.38
2018-03-25T20:15:36.972Z,10.39
2018-03-25T20:18:06.030Z,10.38
2018-03-25T20:20:33.573Z,10.38
2018-03-25T20:23:01.129Z,10.35
2018-03-25T20:25:28.989Z,10.37
2018-03-25T20:27:56.509Z,10.29
2018-03-25T20:30:24.031Z,10.26
2018-03-25T20:32:51.628Z,10.22
2018-03-25T20:35:19.211Z,10.23
2018-03-25T20:37:46.761Z,10.24
2018-03-25T20:40:14.324Z,10.26
2018-03-25T20:42:41.837Z,10.25
2018-03-25T20:45:09.369Z,10.25
2018-03-25T20:47:36.994Z,10.25
2018-03-25T20:50:04.698Z,10.24
2018-03-25T20:52:32.540Z,10.24
2018-03-25T20:55:00.664Z,10.21
2018-03-25T20:57:28.189Z,10.21
2018-03-25T20:59:55.751Z,10.21
2018-03-25T21:02:23.329Z,10.22
2018-03-25T21:04:50.867Z,10.18
2018-03-25T21:07:18.448Z,10.13
2018-03-25T21:09:46.020Z,10.17
2018-03-25T21:12:13.594Z,10.15
2018-03-25T21:14:41.137Z,10.14
2018-03-25T21:17:08.732Z,10.12
2018-03-25T21:19:36.254Z,10.10
2018-03-25T21:22:03.767Z,10.08
2018-03-25T21:24:31.376Z,10.05
2018-03-25T21:26:58.912Z,10.07
2018-03-25T21:29:26.449Z,10.08
2018-03-25T21:31:53.979Z,10.05
2018-03-25T21:34:21.795Z,10.01
2018-03-25T21:36:49.383Z,10.03
2018-03-25T21:39:16.961Z,10.05
2018-03-25T21:41:44.701Z,10.05
2018-03-25T21:44:12.255Z,10.02
2018-03-25T21:46:39.811Z,9.94
2018-03-25T21:49:07.688Z,9.89
2018-03-25T21:51:35.364Z,9.93
2018-03-25T21:54:02.907Z,9.95
2018-03-25T21:56:30.853Z,9.96
2018-03-25T21:58:58.410Z,9.95
2018-03-25T22:01:26.075Z,9.93
2018-03-25T22:03:53.760Z,9.93
2018-03-25T22:06:21.468Z,9.92
2018-03-25T22:08:49.016Z,9.86
2018-03-25T22:11:16.842Z,9.83
2018-03-25T22:13:44.920Z,9.82
2018-03-25T22:16:12.462Z,9.78
2018-03-25T22:19:00.929Z,9.78
2018-03-25T22:21:28.761Z,9.70
2018-03-25T22:23:56.285Z,9.69
2018-03-25T22:26:23.894Z,9.66
2018-03-25T22:28:51.457Z,9.65
2018-03-25T22:31:19.020Z,9.57
2018-03-25T22:33:46.547Z,9.57
2018-03-25T22:36:14.090Z,9.52
2018-03-25T22:38:42.060Z,9.50
2018-03-25T22:41:10.106Z,9.46
2018-03-25T22:43:38.385Z,9.44
2018-03-25T22:46:06.017Z,9.44
2018-03-25T22:48:33.540Z,9.44
2018-03-25T22:51:01.206Z,9.42
2018-03-25T22:53:28.803Z,9.42
2018-03-25T22:55:56.354Z,9.40
2018-03-25T22:58:23.988Z,9.37
2018-03-25T23:00:51.533Z,9.37
2018-03-25T23:03:19.044Z,9.31
2018-03-25T23:05:46.587Z,9.31
2018-03-25T23:08:14.164Z,9.34
2018-03-25T23:10:41.947Z,9.30
2018-03-25T23:13:10.098Z,9.31
2018-03-25T23:15:37.620Z,9.31
2018-03-25T23:18:05.177Z,9.28
2018-03-25T23:20:32.722Z,9.23
2018-03-25T23:23:01.647Z,9.23
2018-03-25T23:25:29.166Z,9.21
2018-03-25T23:27:56.720Z,9.23
2018-03-25T23:30:24.475Z,9.20
2018-03-25T23:32:51.974Z,9.19
2018-03-25T23:35:19.578Z,9.21
2018-03-25T23:37:47.097Z,9.21
2018-03-25T23:40:14.602Z,9.17
2018-03-25T23:42:42.173Z,9.19
2018-03-25T23:45:09.695Z,9.18
2018-03-25T23:47:37.231Z,9.14
2018-03-25T23:50:04.794Z,9.13
2018-03-25T23:52:32.343Z,9.16
2018-03-25T23:54:59.876Z,9.13
2018-03-25T23:57:27.658Z,9.11
2018-03-25T23:59:55.186Z,9.09
